Time;durP1;ratioP1;P1;durP2;ratioP2;P2;SDS_P1;SDS_P2;PMS_P1;PMS_P2;Temp;Humidity;BMP_temperature;BMP_pressure;BME280_temperature;BME280_humidity;BME280_pressure;Samples;Min_cycle;Max_cycle;Signal;HPM_P1;HPM_P2
2021/08/24 00:00:20;;;;;;;;;;;;;;;22.56;52.66;96151.69;1044906;28;1906;-68
2021/08/24 00:00:50;;;;;;;;;;;;;;;22.55;52.63;96152.75;1042400;28;1220;-69
2021/08/24 00:01:21;;;;;;;;;;;;;;;22.54;52.68;96153.81;1048358;28;1387;-69
2021/08/24 00:01:51;;;;;;;;;;;;;;;22.55;52.75;96155.38;1049336;28;1240;-69
2021/08/24 00:02:21;;;;;;;;;;;;;;;22.55;52.44;96146.66;1048757;28;1093;-69
2021/08/24 00:02:52;;;;;;;;;;;;;;;22.54;52.87;96151.19;1046116;28;2060;-69
2021/08/24 00:03:22;;;;;;;;;;;;;;;22.54;52.54;96145.91;1048396;28;1607;-69
2021/08/24 00:03:52;;;;;;;;;;;;;;;22.54;52.76;96147.75;1045921;28;1332;-69
2021/08/24 00:04:22;;;;;;;;;;;;;;;22.55;52.80;96151.94;1046374;28;1284;-69
2021/08/24 00:04:53;;;;;;;;;;;;;;;22.55;52.73;96154.59;1048803;28;1273;-68
2021/08/24 00:05:24;;;;;;;;;;;;;;;22.55;52.69;96154.59;1048117;28;1169;-68
2021/08/24 00:05:54;;;;;;;;;;;;;;;22.55;52.46;96154.59;1049260;28;1222;-69
2021/08/24 00:06:25;;;;;;;;;;;;;;;22.54;52.63;96151.19;1048920;28;1144;-68
2021/08/24 00:06:55;;;;;;;;;;;;;;;22.54;52.80;96148.53;1047279;28;1215;-69
2021/08/24 00:07:25;;;;;;;;;;;;;;;22.54;52.69;96153.81;1046392;28;1361;-70
2021/08/24 00:07:58;;;;;;;;;;;;;;;22.55;52.83;96149.31;1047335;28;2654;-69
2021/08/24 00:08:28;;;;;;;;;;;;;;;22.56;52.81;96161.47;1048320;28;1310;-69
2021/08/24 00:08:59;;;;;;;;;;;;;;;22.55;52.94;96155.38;1049386;28;1200;-69
2021/08/24 00:09:29;;;;;;;;;;;;;;;22.56;52.85;96156.19;1046519;28;1260;-69
2021/08/24 00:09:59;;;;;;;;;;;;;;;22.54;52.63;96159.09;1048503;28;1134;-69
2021/08/24 00:10:40;;;;;;;;;;;;;;;22.54;52.53;96148.53;1047607;28;1256;-69
2021/08/24 00:11:11;;;;;;;;;;;;;;;22.55;52.71;96149.31;1045581;28;2646;-68
2021/08/24 00:11:41;;;;;;;;;;;;;;;22.55;52.65;96160.66;1047551;28;1573;-69
2021/08/24 00:12:12;;;;;;;;;;;;;;;22.54;52.75;96151.19;1038781;28;1710;-69
2021/08/24 00:12:42;;;;;;;;;;;;;;;22.55;52.70;96155.38;1034893;28;1357;-69
2021/08/24 00:13:12;;;;;;;;;;;;;;;22.55;52.43;96150.09;1038939;28;2546;-69
2021/08/24 00:13:43;;;;;;;;;;;;;;;22.55;52.67;96160.66;1038409;28;1237;-69
2021/08/24 00:14:14;;;;;;;;;;;;;;;22.55;52.93;96154.59;1046103;28;1402;-68
2021/08/24 00:14:44;;;;;;;;;;;;;;;22.55;52.58;96157.22;1049923;28;2634;-69
2021/08/24 00:15:14;;;;;;;;;;;;;;;22.55;52.66;96152.75;1048813;28;2194;-67
2021/08/24 00:15:45;;;;;;;;;;;;;;;22.56;52.53;96156.19;1046396;28;1168;-68
2021/08/24 00:16:17;;;;;;;;;;;;;;;22.55;52.79;96151.94;1047931;28;1224;-70
2021/08/24 00:16:47;;;;;;;;;;;;;;;22.56;52.82;96148.25;1047632;28;1267;-69
2021/08/24 00:17:17;;;;;;;;;;;;;;;22.54;52.84;96145.91;1045813;28;1586;-68
2021/08/24 00:17:48;;;;;;;;;;;;;;;22.55;52.51;96154.59;1043179;28;2049;-69
2021/08/24 00:18:18;;;;;;;;;;;;;;;22.54;52.87;96153.81;1042983;28;1001;-69
2021/08/24 00:18:49;;;;;;;;;;;;;;;22.54;52.74;96145.91;1041741;28;1300;-68
2021/08/24 00:19:19;;;;;;;;;;;;;;;22.55;52.79;96151.94;1042696;28;1249;-70
2021/08/24 00:19:49;;;;;;;;;;;;;;;22.56;52.76;96150.91;1046067;28;1906;-69
2021/08/24 00:20:20;;;;;;;;;;;;;;;22.56;52.51;96151.69;1046506;28;1603;-69
2021/08/24 00:20:51;;;;;;;;;;;;;;;22.55;52.86;96146.66;1048298;28;1158;-68
2021/08/24 00:21:21;;;;;;;;;;;;;;;22.55;52.54;96152.75;1047685;28;2714;-69
2021/08/24 00:21:52;;;;;;;;;;;;;;;22.55;52.58;96150.09;1048543;28;1297;-69
2021/08/24 00:22:22;;;;;;;;;;;;;;;22.54;52.86;96145.91;1043075;28;1178;-68
2021/08/24 00:22:52;;;;;;;;;;;;;;;22.55;52.63;96149.31;1036735;28;2095;-69
2021/08/24 00:23:24;;;;;;;;;;;;;;;22.55;52.72;96146.66;1035138;28;1410;-69
2021/08/24 00:23:54;;;;;;;;;;;;;;;22.55;52.85;96151.94;1036782;28;1341;-70
2021/08/24 00:24:24;;;;;;;;;;;;;;;22.55;52.75;96150.09;1036834;28;1297;-71
2021/08/24 00:24:54;;;;;;;;;;;;;;;22.55;52.56;96150.09;1040670;28;1187;-69
2021/08/24 00:25:25;;;;;;;;;;;;;;;22.55;52.60;96139.53;1048528;28;1216;-70
2021/08/24 00:25:55;;;;;;;;;;;;;;;22.57;52.59;96150.63;1046092;28;1161;-68
2021/08/24 00:26:25;;;;;;;;;;;;;;;22.56;52.89;96149.06;1048923;28;1197;-69
2021/08/24 00:26:56;;;;;;;;;;;;;;;22.55;52.66;96144.03;1048320;28;1311;-68
2021/08/24 00:27:26;;;;;;;;;;;;;;;22.57;52.73;96139.25;1045531;28;1058;-70
2021/08/24 00:27:56;;;;;;;;;;;;;;;22.56;52.79;96148.25;1047367;28;2721;-70
2021/08/24 00:28:27;;;;;;;;;;;;;;;22.57;52.60;96147.97;1045237;28;2216;-70
2021/08/24 00:28:57;;;;;;;;;;;;;;;22.57;52.58;96147.97;1047800;28;1594;-69
2021/08/24 00:29:27;;;;;;;;;;;;;;;22.55;52.79;96147.47;1046116;28;1146;-71
2021/08/24 00:29:57;;;;;;;;;;;;;;;22.55;52.92;96144.81;1047306;28;1235;-70
2021/08/24 00:30:28;;;;;;;;;;;;;;;22.56;52.93;96141.13;1039970;28;1226;-69
2021/08/24 00:30:58;;;;;;;;;;;;;;;22.55;52.93;96147.47;1038364;28;1186;-69
2021/08/24 00:31:28;;;;;;;;;;;;;;;22.55;52.63;96144.81;1044515;28;1426;-69
2021/08/24 00:31:59;;;;;;;;;;;;;;;22.56;52.59;96148.25;1044804;28;1146;-68
2021/08/24 00:32:30;;;;;;;;;;;;;;;22.55;52.66;96142.19;1045952;28;1096;-68
2021/08/24 00:33:00;;;;;;;;;;;;;;;22.54;52.86;96145.91;1047341;28;2095;-68
2021/08/24 00:33:30;;;;;;;;;;;;;;;22.56;52.46;96149.06;1052274;28;1247;-67
2021/08/24 00:34:00;;;;;;;;;;;;;;;22.55;52.86;96147.47;1048859;28;1520;-69
2021/08/24 00:34:31;;;;;;;;;;;;;;;22.56;52.86;96151.69;1046070;28;1189;-69
2021/08/24 00:35:01;;;;;;;;;;;;;;;22.56;52.85;96146.41;1044719;28;1435;-69
2021/08/24 00:35:31;;;;;;;;;;;;;;;22.56;52.92;96145.63;1044137;28;1303;-70
2021/08/24 00:36:02;;;;;;;;;;;;;;;22.55;52.93;96144.81;1043088;28;1332;-68
2021/08/24 00:36:32;;;;;;;;;;;;;;;22.56;52.88;96149.06;1044763;28;1241;-70
2021/08/24 00:37:02;;;;;;;;;;;;;;;22.55;52.74;96144.81;1048497;28;1224;-70
2021/08/24 00:37:33;;;;;;;;;;;;;;;22.56;52.63;96153.53;1044772;28;2109;-70
2021/08/24 00:38:03;;;;;;;;;;;;;;;22.56;52.60;96153.53;1045685;28;2669;-69
2021/08/24 00:38:34;;;;;;;;;;;;;;;22.55;52.56;96155.38;1047609;28;1216;-68
2021/08/24 00:39:04;;;;;;;;;;;;;;;22.55;52.50;96150.09;1047501;28;1209;-70
2021/08/24 00:39:34;;;;;;;;;;;;;;;22.57;52.48;96153.25;1046239;28;1338;-70
2021/08/24 00:40:05;;;;;;;;;;;;;;;22.55;52.46;96152.75;1048650;28;1898;-69
2021/08/24 00:40:35;;;;;;;;;;;;;;;22.55;52.60;96152.75;1044333;28;1609;-69
2021/08/24 00:41:06;;;;;;;;;;;;;;;22.56;52.66;96156.97;1047628;28;1134;-69
2021/08/24 00:41:36;;;;;;;;;;;;;;;22.57;52.72;96155.09;1048479;28;1217;-69
2021/08/24 00:42:10;;;;;;;;;;;;;;;22.57;52.67;96158.53;1043894;28;1351;-70
2021/08/24 00:42:41;;;;;;;;;;;;;;;22.56;52.89;96151.69;1038743;28;1634;-67
2021/08/24 00:43:11;;;;;;;;;;;;;;;22.55;52.79;96152.75;1037868;28;2060;-68
2021/08/24 00:43:42;;;;;;;;;;;;;;;22.56;52.64;96156.19;1039161;28;1274;-69
2021/08/24 00:44:12;;;;;;;;;;;;;;;22.57;52.56;96157.75;1043825;28;1226;-69
2021/08/24 00:44:43;;;;;;;;;;;;;;;22.55;52.76;96160.66;1047303;28;1283;-69
2021/08/24 00:45:13;;;;;;;;;;;;;;;22.55;52.92;96152.75;1047657;28;1150;-69
2021/08/24 00:45:44;;;;;;;;;;;;;;;22.57;52.74;96158.53;1046930;28;1189;-69
2021/08/24 00:46:29;;;;;;;;;;;;;;;22.56;52.82;96161.47;1045987;28;1505;-69
2021/08/24 00:46:59;;;;;;;;;;;;;;;22.55;52.88;96155.38;1046793;28;1116;-69
2021/08/24 00:47:30;;;;;;;;;;;;;;;22.54;52.88;96153.81;1044841;28;1513;-69
2021/08/24 00:48:00;;;;;;;;;;;;;;;22.55;52.88;96154.59;1041698;28;2628;-69
2021/08/24 00:48:31;;;;;;;;;;;;;;;22.55;52.67;96158.03;1042024;28;1249;-69
2021/08/24 00:49:03;;;;;;;;;;;;;;;22.55;52.60;96155.38;1040601;28;1186;-67
2021/08/24 00:49:34;;;;;;;;;;;;;;;22.55;52.85;96152.75;1042737;28;1162;-69
2021/08/24 00:50:23;;;;;;;;;;;;;;;22.56;52.65;96153.53;1048641;28;1111;-69
2021/08/24 00:50:53;;;;;;;;;;;;;;;22.55;52.90;96150.09;1047192;28;1270;-69
2021/08/24 00:51:24;;;;;;;;;;;;;;;22.55;52.93;96160.66;1043656;28;1410;-69
2021/08/24 00:52:00;;;;;;;;;;;;;;;22.55;52.89;96151.94;1040274;28;1430;-70
2021/08/24 00:52:30;;;;;;;;;;;;;;;22.56;52.87;96151.69;1035184;28;2679;-70
2021/08/24 00:53:02;;;;;;;;;;;;;;;22.55;52.78;96152.75;1035629;28;2660;-69
2021/08/24 06:33:24;;;;;;;;;;;;;;;22.15;49.21;96229.59;1048727;28;1355;-67
2021/08/24 06:33:55;;;;;;;;;;;;;;;22.14;49.43;96233.28;1041678;28;2045;-66
2021/08/24 06:34:27;;;;;;;;;;;;;;;22.15;49.56;96234.09;1038784;28;3007;-68
2021/08/24 06:34:57;;;;;;;;;;;;;;;22.14;49.79;96233.28;1040130;28;3635;-67
2021/08/24 06:35:27;;;;;;;;;;;;;;;22.14;49.67;96232.50;1032959;28;2712;-66
2021/08/24 06:35:58;;;;;;;;;;;;;;;22.14;49.77;96228.03;1031020;28;1135;-66
2021/08/24 06:36:28;;;;;;;;;;;;;;;22.15;50.15;96237.53;1036634;28;1292;-64
2021/08/24 06:36:59;;;;;;;;;;;;;;;22.17;49.92;96237.25;1034239;28;2682;-70
2021/08/24 06:37:29;;;;;;;;;;;;;;;22.16;50.19;96233.81;1043205;28;1318;-68
2021/08/24 06:38:00;;;;;;;;;;;;;;;22.18;50.36;96236.19;1043064;28;1495;-68
2021/08/24 06:38:31;;;;;;;;;;;;;;;22.18;50.50;96236.19;1044128;28;1224;-68
2021/08/24 06:39:01;;;;;;;;;;;;;;;22.19;50.39;96240.41;1037732;28;2060;-67
2021/08/24 06:39:32;;;;;;;;;;;;;;;22.19;50.62;96238.56;1047446;28;1225;-67
2021/08/24 06:40:02;;;;;;;;;;;;;;;22.20;50.81;96232.22;1048031;28;1197;-66
2021/08/24 06:40:33;;;;;;;;;;;;;;;22.21;50.58;96233.00;1048664;28;1921;-67
2021/08/24 06:41:03;;;;;;;;;;;;;;;22.22;50.61;96234.56;1047818;28;1342;-65
2021/08/24 06:41:33;;;;;;;;;;;;;;;22.22;50.83;96240.66;1043468;28;1268;-67
2021/08/24 06:42:05;;;;;;;;;;;;;;;22.22;50.91;96240.66;1038926;28;1221;-68
2021/08/24 06:42:42;;;;;;;;;;;;;;;22.24;51.00;96237.72;1038672;28;1210;-68
2021/08/24 06:43:13;;;;;;;;;;;;;;;22.25;50.91;96239.31;1038367;28;2369;-66
2021/08/24 06:43:44;;;;;;;;;;;;;;;22.25;50.95;96236.69;1041401;28;2093;-67
2021/08/24 06:44:14;;;;;;;;;;;;;;;22.25;50.86;96237.47;1040572;28;1087;-66
2021/08/24 06:44:45;;;;;;;;;;;;;;;22.25;51.02;96237.47;1039900;28;1319;-67
2021/08/24 06:45:33;;;;;;;;;;;;;;;22.26;50.93;96239.03;1034965;28;1373;-67
2021/08/24 06:46:04;;;;;;;;;;;;;;;22.26;50.92;96241.69;1032796;28;1493;-68
2021/08/24 06:46:34;;;;;;;;;;;;;;;22.26;50.91;96239.03;1033778;28;1242;-67
2021/08/24 06:47:04;;;;;;;;;;;;;;;22.28;51.23;96236.91;1041221;28;1042;-68
2021/08/24 06:47:35;;;;;;;;;;;;;;;22.28;51.28;96234.28;1042121;28;1662;-65
2021/08/24 06:48:05;;;;;;;;;;;;;;;22.28;51.30;96234.28;1045269;28;1188;-67
2021/08/24 06:48:35;;;;;;;;;;;;;;;22.29;50.85;96238.50;1044434;28;1293;-66
2021/08/24 06:49:05;;;;;;;;;;;;;;;22.29;51.11;96241.16;1039124;28;2055;-68
2021/08/24 06:49:37;;;;;;;;;;;;;;;22.30;50.99;96231.34;1040593;28;1202;-68
2021/08/24 06:50:07;;;;;;;;;;;;;;;22.30;51.03;96240.06;1043281;28;1248;-67
2021/08/24 06:50:37;;;;;;;;;;;;;;;22.31;51.04;96240.88;1045471;28;1217;-67
2021/08/24 06:51:09;;;;;;;;;;;;;;;22.31;51.29;96236.38;1046611;28;1667;-68
2021/08/24 06:51:39;;;;;;;;;;;;;;;22.31;51.05;96239.03;1044967;28;2371;-68
2021/08/24 06:52:09;;;;;;;;;;;;;;;22.31;51.04;96233.75;1045805;28;1564;-67
2021/08/24 06:52:40;;;;;;;;;;;;;;;22.32;51.13;96237.94;1038174;28;2373;-68
2021/08/24 06:53:10;;;;;;;;;;;;;;;22.32;51.02;96235.31;1042893;28;1413;-67
2021/08/24 06:53:41;;;;;;;;;;;;;;;22.32;51.11;96235.31;1034678;28;2542;-69
2021/08/24 06:54:11;;;;;;;;;;;;;;;22.32;50.91;96243.22;1038104;28;2071;-67
2021/08/24 06:54:42;;;;;;;;;;;;;;;22.32;51.24;96237.94;1040066;28;1733;-67
2021/08/24 06:55:12;;;;;;;;;;;;;;;22.33;51.03;96239.53;1035609;28;2365;-68
2021/08/24 06:55:42;;;;;;;;;;;;;;;22.32;51.10;96240.59;1035470;28;2346;-69
2021/08/24 06:56:13;;;;;;;;;;;;;;;22.33;51.11;96242.19;1035292;28;1178;-68
2021/08/24 06:56:43;;;;;;;;;;;;;;;22.33;51.03;96239.53;1039681;28;1493;-67
2021/08/24 06:57:14;;;;;;;;;;;;;;;22.34;50.94;96245.63;1039349;28;1171;-69
2021/08/24 06:57:44;;;;;;;;;;;;;;;22.35;50.91;96250.63;1041072;28;1245;-67
2021/08/24 06:58:15;;;;;;;;;;;;;;;22.35;50.88;96240.06;1043463;28;1205;-68
2021/08/24 06:58:47;;;;;;;;;;;;;;;22.34;51.07;96243.75;1042145;28;2704;-67
2021/08/24 06:59:17;;;;;;;;;;;;;;;22.35;50.82;96245.34;1042399;28;1761;-68
2021/08/24 06:59:51;;;;;;;;;;;;;;;22.34;50.99;96243.75;1048408;28;1615;-68
2021/08/24 07:00:22;;;;;;;;;;;;;;;22.36;51.19;96243.50;1047188;28;1965;-68
2021/08/24 07:00:52;;;;;;;;;;;;;;;22.35;51.03;96244.53;1042425;28;1533;-69
2021/08/24 07:01:23;;;;;;;;;;;;;;;22.35;50.91;96253.28;1040500;28;2014;-69
2021/08/24 07:01:53;;;;;;;;;;;;;;;22.38;50.97;96246.66;1043388;28;1210;-68
2021/08/24 07:02:24;;;;;;;;;;;;;;;22.36;50.79;96241.63;1042346;28;1989;-68
2021/08/24 07:02:54;;;;;;;;;;;;;;;22.38;50.90;96244.78;1043299;28;1155;-69
2021/08/24 07:03:25;;;;;;;;;;;;;;;22.38;50.69;96247.41;1044136;28;1734;-69
2021/08/24 07:03:55;;;;;;;;;;;;;;;22.38;50.83;96244.78;1043113;28;2275;-69
2021/08/24 07:04:25;;;;;;;;;;;;;;;22.39;50.77;96249.03;1039110;28;1221;-68
2021/08/24 07:04:56;;;;;;;;;;;;;;;22.40;50.98;96241.88;1043152;28;1257;-70
2021/08/24 07:05:27;;;;;;;;;;;;;;;22.40;50.96;96249.81;1047489;28;1307;-69
2021/08/24 07:05:57;;;;;;;;;;;;;;;22.39;50.91;96245.56;1043567;28;1339;-69
2021/08/24 07:06:28;;;;;;;;;;;;;;;22.37;50.87;96237.94;1040874;28;1237;-69
2021/08/24 07:06:58;;;;;;;;;;;;;;;22.36;51.13;96244.25;1038621;28;1681;-69
2021/08/24 07:07:29;;;;;;;;;;;;;;;22.36;50.86;96241.63;1034765;28;1354;-68
2021/08/24 07:07:59;;;;;;;;;;;;;;;22.38;50.85;96244.78;1034634;28;1758;-69
2021/08/24 07:08:29;;;;;;;;;;;;;;;22.39;51.05;96246.38;1038273;28;1309;-69
2021/08/24 07:09:00;;;;;;;;;;;;;;;22.38;51.17;96239.50;1042260;28;2357;-69
2021/08/24 07:09:30;;;;;;;;;;;;;;;22.39;51.12;96241.09;1047488;28;1244;-69
2021/08/24 07:10:00;;;;;;;;;;;;;;;22.38;50.84;96239.50;1048002;28;1213;-69
2021/08/24 07:10:31;;;;;;;;;;;;;;;22.38;50.96;96239.50;1047613;28;1342;-69
2021/08/24 07:11:01;;;;;;;;;;;;;;;22.39;50.70;96246.38;1043310;28;1006;-69
2021/08/24 07:11:31;;;;;;;;;;;;;;;22.39;50.68;96240.28;1043001;28;1364;-69
2021/08/24 07:12:02;;;;;;;;;;;;;;;22.39;50.78;96241.09;1038102;28;1373;-69
2021/08/24 07:12:32;;;;;;;;;;;;;;;22.40;50.66;96237.38;1035814;28;1707;-70
2021/08/24 07:13:02;;;;;;;;;;;;;;;22.41;50.85;96238.16;1044797;28;1189;-69
2021/08/24 07:13:33;;;;;;;;;;;;;;;22.41;50.69;96240.81;1038797;28;1174;-69
2021/08/24 07:14:04;;;;;;;;;;;;;;;22.41;50.85;96238.16;1043444;28;2423;-69
2021/08/24 07:14:36;;;;;;;;;;;;;;;22.41;50.77;96238.16;1039289;28;2692;-70
2021/08/24 07:15:06;;;;;;;;;;;;;;;22.40;50.82;96245.28;1039229;28;1284;-69
2021/08/24 07:15:37;;;;;;;;;;;;;;;22.40;50.85;96240.00;1040608;28;1229;-69
2021/08/24 07:16:07;;;;;;;;;;;;;;;22.40;50.77;96239.25;1042118;28;1596;-70
2021/08/24 07:16:40;;;;;;;;;;;;;;;22.41;50.85;96236.31;1048433;28;1193;-69
2021/08/24 07:17:11;;;;;;;;;;;;;;;22.41;50.84;96243.44;1046666;28;1311;-69
2021/08/24 07:17:41;;;;;;;;;;;;;;;22.41;51.06;96241.59;1046426;28;1398;-69
2021/08/24 07:18:12;;;;;;;;;;;;;;;22.41;50.92;96238.16;1041891;28;1395;-70
2021/08/24 07:18:42;;;;;;;;;;;;;;;22.41;51.02;96238.97;1043990;28;1269;-70
2021/08/24 07:19:13;;;;;;;;;;;;;;;22.41;51.10;96240.81;1040538;28;2635;-68
2021/08/24 07:19:43;;;;;;;;;;;;;;;22.42;50.83;96234.47;1036319;28;1245;-70
2021/08/24 07:20:14;;;;;;;;;;;;;;;22.41;51.05;96244.25;1044620;28;1918;-69
2021/08/24 07:20:48;;;;;;;;;;;;;;;22.42;50.76;96245.03;1040518;28;1155;-70
2021/08/24 07:21:18;;;;;;;;;;;;;;;22.42;50.80;96248.44;1040746;28;2209;-70
2021/08/24 07:21:49;;;;;;;;;;;;;;;22.42;50.84;96239.75;1040234;28;1182;-68
2021/08/24 07:22:19;;;;;;;;;;;;;;;22.42;50.94;96245.81;1043664;28;1304;-69
2021/08/24 07:22:49;;;;;;;;;;;;;;;22.41;50.89;96246.88;1042637;28;2398;-69
2021/08/24 07:23:20;;;;;;;;;;;;;;;22.41;50.81;96249.53;1046427;28;1804;-69
2021/08/24 07:23:51;;;;;;;;;;;;;;;22.41;50.81;96254.81;1042430;28;2228;-68
2021/08/24 07:24:22;;;;;;;;;;;;;;;22.40;50.95;96247.94;1047193;28;1177;-68
2021/08/24 07:24:52;;;;;;;;;;;;;;;22.41;51.10;96249.53;1044472;28;1391;-68
2021/08/24 07:25:23;;;;;;;;;;;;;;;22.43;50.76;96246.63;1043369;28;1307;-69
2021/08/24 07:25:53;;;;;;;;;;;;;;;22.42;50.85;96247.69;1045443;28;1254;-68
2021/08/24 07:26:23;;;;;;;;;;;;;;;22.43;51.08;96250.06;1043353;28;1209;-68
2021/08/24 07:26:54;;;;;;;;;;;;;;;22.41;50.82;96249.53;1039761;28;1116;-69
2021/08/24 07:27:24;;;;;;;;;;;;;;;22.41;50.96;96252.19;1035273;28;1190;-68
2021/08/24 07:27:54;;;;;;;;;;;;;;;22.41;50.89;96244.25;1040229;28;1214;-68
2021/08/24 07:28:25;;;;;;;;;;;;;;;22.41;51.19;96251.38;1036597;28;1210;-68
2021/08/24 07:28:55;;;;;;;;;;;;;;;22.41;50.96;96249.53;1034289;28;2306;-69
2021/08/24 07:29:25;;;;;;;;;;;;;;;22.41;50.87;96252.19;1040588;28;1284;-68
2021/08/24 07:29:55;;;;;;;;;;;;;;;22.42;50.89;96252.97;1040294;28;1289;-69
2021/08/24 07:30:26;;;;;;;;;;;;;;;22.42;51.10;96250.31;1039815;28;1736;-69
2021/08/24 07:30:56;;;;;;;;;;;;;;;22.42;51.16;96255.63;1037092;28;1131;-68
2021/08/24 07:31:28;;;;;;;;;;;;;;;22.41;50.76;96248.75;1043140;28;1369;-67
2021/08/24 07:31:58;;;;;;;;;;;;;;;22.41;50.91;96249.53;1042028;28;3016;-70
2021/08/24 07:32:29;;;;;;;;;;;;;;;22.41;50.80;96249.53;1045658;28;3397;-69
2021/08/24 07:32:59;;;;;;;;;;;;;;;22.41;50.84;96248.75;1047623;28;1233;-68
2021/08/24 07:33:29;;;;;;;;;;;;;;;22.42;50.89;96251.09;1046359;28;2793;-68
2021/08/24 07:34:00;;;;;;;;;;;;;;;22.41;51.04;96249.53;1045766;28;2287;-69
2021/08/24 07:34:31;;;;;;;;;;;;;;;22.41;51.20;96244.25;1045932;28;2985;-69
2021/08/24 07:35:01;;;;;;;;;;;;;;;22.40;51.09;96247.94;1046260;28;1615;-68
2021/08/24 07:35:31;;;;;;;;;;;;;;;22.40;51.16;96258.50;1046124;28;2385;-69
2021/08/24 07:36:02;;;;;;;;;;;;;;;22.40;51.29;96250.56;1046854;28;1053;-68
2021/08/24 07:36:32;;;;;;;;;;;;;;;22.41;50.99;96254.03;1046942;28;2924;-68
2021/08/24 07:37:03;;;;;;;;;;;;;;;22.41;50.94;96252.19;1045910;28;1600;-70
2021/08/24 07:37:33;;;;;;;;;;;;;;;22.41;50.92;96252.19;1047163;28;2285;-68
2021/08/24 07:38:04;;;;;;;;;;;;;;;22.42;51.01;96258.25;1047313;28;1279;-69
2021/08/24 07:38:34;;;;;;;;;;;;;;;22.41;50.79;96254.81;1047499;28;1535;-68
2021/08/24 07:39:04;;;;;;;;;;;;;;;22.41;51.06;96259.31;1047075;28;2314;-67
2021/08/24 07:39:35;;;;;;;;;;;;;;;22.42;51.17;96251.09;1044735;28;3364;-68
2021/08/24 07:40:06;;;;;;;;;;;;;;;22.41;51.10;96254.81;1041999;28;3394;-68
2021/08/24 07:40:36;;;;;;;;;;;;;;;22.41;50.95;96254.03;1037366;28;2955;-67
2021/08/24 07:41:06;;;;;;;;;;;;;;;22.42;51.04;96255.63;1042089;28;1312;-68
2021/08/24 07:41:36;;;;;;;;;;;;;;;22.41;50.96;96252.19;1042214;28;2591;-68
2021/08/24 07:42:07;;;;;;;;;;;;;;;22.40;50.81;96255.88;1042621;28;1754;-68
2021/08/24 07:42:37;;;;;;;;;;;;;;;22.41;50.81;96254.81;1043138;28;1767;-68
2021/08/24 07:43:07;;;;;;;;;;;;;;;22.41;50.95;96254.03;1036046;28;1224;-67
2021/08/24 07:43:38;;;;;;;;;;;;;;;22.41;51.13;96254.81;1034115;28;2236;-68
2021/08/24 07:44:08;;;;;;;;;;;;;;;22.41;50.91;96248.75;1036848;28;2463;-66
2021/08/24 07:44:38;;;;;;;;;;;;;;;22.42;50.84;96252.97;1037211;28;1637;-69
2021/08/24 07:45:09;;;;;;;;;;;;;;;22.41;50.79;96248.75;1044217;28;1260;-71
2021/08/24 07:45:39;;;;;;;;;;;;;;;22.40;50.77;96255.88;1038936;28;1316;-69
2021/08/24 07:46:09;;;;;;;;;;;;;;;22.41;51.10;96257.47;1039617;28;1242;-69
2021/08/24 07:46:40;;;;;;;;;;;;;;;22.41;50.76;96252.19;1034554;28;1647;-69
2021/08/24 07:47:10;;;;;;;;;;;;;;;22.40;51.09;96250.56;1038618;28;2276;-68
2021/08/24 07:47:40;;;;;;;;;;;;;;;22.41;51.19;96257.47;1035878;28;2505;-68
2021/08/24 07:48:11;;;;;;;;;;;;;;;22.40;50.85;96245.28;1036609;28;1395;-67
2021/08/24 07:48:41;;;;;;;;;;;;;;;22.41;51.05;96257.47;1039751;28;1411;-69
2021/08/24 07:49:11;;;;;;;;;;;;;;;22.41;50.96;96249.53;1046399;28;2318;-68
2021/08/24 07:49:44;;;;;;;;;;;;;;;22.41;50.84;96259.31;1047290;28;1601;-69
2021/08/24 07:50:17;;;;;;;;;;;;;;;22.41;50.94;96259.31;1043628;28;1613;-68
2021/08/24 07:50:48;;;;;;;;;;;;;;;22.41;50.75;96254.81;1034934;28;1310;-69
2021/08/24 07:51:21;;;;;;;;;;;;;;;22.42;50.99;96258.25;1036490;28;1304;-68
2021/08/24 07:51:54;;;;;;;;;;;;;;;22.41;50.90;96260.09;1036748;28;1765;-69
2021/08/24 07:52:24;;;;;;;;;;;;;;;22.41;50.82;96256.66;1041274;28;1249;-69
2021/08/24 07:52:55;;;;;;;;;;;;;;;22.41;50.98;96254.81;1047300;28;1158;-68
2021/08/24 07:53:25;;;;;;;;;;;;;;;22.41;51.21;96261.94;1047436;28;1200;-67
2021/08/24 07:53:55;;;;;;;;;;;;;;;22.41;50.87;96260.09;1047938;28;2270;-69
2021/08/24 07:54:26;;;;;;;;;;;;;;;22.41;50.84;96264.59;1047515;28;1936;-66
2021/08/24 07:54:56;;;;;;;;;;;;;;;22.41;50.75;96265.38;1045609;28;1222;-68
2021/08/24 07:55:26;;;;;;;;;;;;;;;22.40;50.72;96265.66;1042172;28;1308;-69
2021/08/24 07:55:57;;;;;;;;;;;;;;;22.40;51.11;96269.06;1043408;28;2433;-69
2021/08/24 07:56:27;;;;;;;;;;;;;;;22.40;50.98;96271.72;1042612;28;2483;-69
2021/08/24 07:56:58;;;;;;;;;;;;;;;22.40;51.09;96269.06;1044319;28;1253;-69
2021/08/24 07:57:28;;;;;;;;;;;;;;;22.40;50.83;96266.44;1044381;28;1163;-68
2021/08/24 07:57:58;;;;;;;;;;;;;;;22.39;51.07;96267.50;1040561;28;1213;-69
2021/08/24 07:58:29;;;;;;;;;;;;;;;22.41;51.16;96269.88;1038973;28;1237;-68
2021/08/24 07:58:59;;;;;;;;;;;;;;;22.40;50.85;96269.06;1039617;28;2181;-68
2021/08/24 07:59:31;;;;;;;;;;;;;;;22.40;50.77;96269.06;1039687;28;981;-68
2021/08/24 08:00:03;;;;;;;;;;;;;;;22.40;50.89;96271.72;1042435;28;1641;-68
2021/08/24 08:00:33;;;;;;;;;;;;;;;22.40;50.93;96274.34;1039838;28;1894;-68
2021/08/24 08:01:04;;;;;;;;;;;;;;;22.40;50.91;96271.72;1044255;28;1245;-68
2021/08/24 08:01:34;;;;;;;;;;;;;;;22.40;51.05;96274.34;1044500;28;1414;-68
2021/08/24 08:02:04;;;;;;;;;;;;;;;22.40;50.82;96269.06;1040326;28;1245;-68
2021/08/24 08:02:35;;;;;;;;;;;;;;;22.41;50.73;96280.44;1047456;28;1340;-70
2021/08/24 08:03:06;;;;;;;;;;;;;;;22.40;50.87;96269.06;1043824;28;1445;-72
2021/08/24 08:03:36;;;;;;;;;;;;;;;22.39;50.94;96270.16;1042919;28;1763;-71
2021/08/24 08:04:07;;;;;;;;;;;;;;;22.41;50.85;96275.16;1038935;28;2324;-71
2021/08/24 08:04:37;;;;;;;;;;;;;;;22.39;50.98;96275.44;1038382;28;2376;-71
2021/08/24 08:05:08;;;;;;;;;;;;;;;22.40;50.83;96274.34;1042624;28;1099;-71
2021/08/24 08:05:38;;;;;;;;;;;;;;;22.40;50.72;96273.59;1038565;28;1559;-71
2021/08/24 08:06:08;;;;;;;;;;;;;;;22.39;50.76;96272.78;1043485;28;1204;-71
2021/08/24 08:06:39;;;;;;;;;;;;;;;22.40;50.78;96274.34;1044213;28;1217;-71
2021/08/24 08:07:10;;;;;;;;;;;;;;;22.40;50.87;96274.34;1043377;28;1699;-71
2021/08/24 08:07:40;;;;;;;;;;;;;;;22.41;50.68;96277.78;1043859;28;1276;-71
2021/08/24 08:08:10;;;;;;;;;;;;;;;22.40;50.82;96274.34;1044830;28;1237;-71
2021/08/24 08:08:41;;;;;;;;;;;;;;;22.40;50.78;96273.59;1044284;28;1289;-71
2021/08/24 08:09:11;;;;;;;;;;;;;;;22.40;50.80;96274.34;1035243;28;2302;-71
2021/08/24 08:09:42;;;;;;;;;;;;;;;22.40;51.03;96273.59;1037729;28;1120;-71
2021/08/24 08:10:12;;;;;;;;;;;;;;;22.39;50.79;96272.78;1035301;28;2365;-71
2021/08/24 08:10:42;;;;;;;;;;;;;;;22.40;50.88;96274.34;1038476;28;2333;-71
2021/08/24 08:11:13;;;;;;;;;;;;;;;22.40;50.82;96274.34;1038576;28;2209;-71
2021/08/24 08:11:43;;;;;;;;;;;;;;;22.41;50.63;96283.06;1039251;28;2018;-72
2021/08/24 08:12:15;;;;;;;;;;;;;;;22.40;50.57;96274.34;1034146;28;1309;-71
2021/08/24 08:12:45;;;;;;;;;;;;;;;22.40;50.78;96274.34;1034733;28;2297;-70
2021/08/24 08:13:15;;;;;;;;;;;;;;;22.41;51.01;96269.88;1041832;28;2351;-71
2021/08/24 08:13:46;;;;;;;;;;;;;;;22.40;50.89;96274.34;1044811;28;1040;-71
2021/08/24 08:14:16;;;;;;;;;;;;;;;22.41;50.60;96269.88;1046718;28;2184;-70
2021/08/24 08:14:46;;;;;;;;;;;;;;;22.40;50.90;96279.63;1044954;28;1682;-70
2021/08/24 08:15:17;;;;;;;;;;;;;;;22.39;50.62;96272.78;1046627;28;2337;-70
2021/08/24 08:15:47;;;;;;;;;;;;;;;22.40;50.76;96278.88;1045994;28;2499;-70
2021/08/24 08:16:18;;;;;;;;;;;;;;;22.41;50.49;96275.16;1043620;28;1183;-70
2021/08/24 08:16:49;;;;;;;;;;;;;;;22.40;50.71;96271.72;1044354;28;1107;-70
2021/08/24 08:17:20;;;;;;;;;;;;;;;22.41;50.46;96275.94;1035509;28;1351;-69
2021/08/24 08:17:50;;;;;;;;;;;;;;;22.40;50.67;96265.66;1036200;28;1246;-69
2021/08/24 08:18:20;;;;;;;;;;;;;;;22.40;50.44;96271.72;1036349;28;1362;-69
2021/08/24 08:18:51;;;;;;;;;;;;;;;22.40;50.72;96278.88;1036208;28;1223;-68
2021/08/24 08:19:21;;;;;;;;;;;;;;;22.40;50.64;96274.34;1043531;28;2370;-69
2021/08/24 08:19:51;;;;;;;;;;;;;;;22.40;50.71;96274.34;1046023;28;1229;-70
2021/08/24 08:20:22;;;;;;;;;;;;;;;22.40;50.52;96274.34;1045257;28;1914;-69
2021/08/24 08:20:52;;;;;;;;;;;;;;;22.40;50.75;96269.06;1046687;28;1156;-68
2021/08/24 08:21:22;;;;;;;;;;;;;;;22.41;50.45;96272.50;1047409;28;1410;-71
2021/08/24 08:21:53;;;;;;;;;;;;;;;22.40;50.55;96276.22;1045610;28;1214;-71
2021/08/24 08:22:23;;;;;;;;;;;;;;;22.40;50.75;96274.34;1046567;28;1567;-69